RJNY(METAR)
10/21 05:00
METAR RJNY 202000Z 02006KT 360V070 9999 FEW020 16/10 Q1024 RMK
1CU020 A3026=
戻る
トップページへ戻る
IMOC Co,.Ltd.